Grovetown, Georgia
Current Conditions -  °F | °C
As of 10:53 AM on Friday 24 Oct 2014 (Local Time) from KDNL Reporting Station
Clear Clear  
Wind Chill: 62°   Ceiling: Unl
Heat Index: 62°   Visibility: 10mi
Dew Point: 44°   Wind: 6mph
Humidity: 52%   Direction: 120°ESE
Pressure: 30.09"   Gusts: NA
Location:  33.45°N, 82.2°W
Report Text: KDNL 241453Z AUTO 12005KT 10SM CLR 17/07 A3009 RMK AO2 SLP186 T01670067 51006
Loading
Personal Weather Stations






























Interactive Weather Map
Tropical Storm Tracking
New forecast layout! Learn more

10-Day Weather Forecast

Advertisements
Track Severe Weather on mobile